createdAt,value
2022-11-16T00:00:26.028Z,11.65
2022-11-16T00:01:09.270Z,10.02
2022-11-16T00:01:40.808Z,10.93
2022-11-16T00:02:13.197Z,10.63
2022-11-16T00:02:44.690Z,11.95
2022-11-16T00:03:18.768Z,10.68
2022-11-16T00:03:51.886Z,9.93
2022-11-16T00:04:23.305Z,10.10
2022-11-16T00:04:55.079Z,9.52
2022-11-16T00:05:28.543Z,10.15
2022-11-16T00:06:02.581Z,10.02
2022-11-16T00:06:34.063Z,10.25
2022-11-16T00:07:06.194Z,10.02
2022-11-16T00:07:37.831Z,11.95
2022-11-16T00:08:09.388Z,9.98
2022-11-16T00:08:44.223Z,10.63
2022-11-16T00:09:27.135Z,8.75
2022-11-16T00:09:58.715Z,9.70
2022-11-16T00:10:30.205Z,9.48
2022-11-16T00:11:16.176Z,9.10
2022-11-16T00:11:53.950Z,9.73
2022-11-16T00:12:25.407Z,10.98
2022-11-16T00:12:56.922Z,10.30
2022-11-16T00:13:28.346Z,10.27
2022-11-16T00:13:59.791Z,10.68
2022-11-16T00:14:34.432Z,11.02
2022-11-16T00:15:09.391Z,11.43
2022-11-16T00:15:40.833Z,9.93
2022-11-16T00:16:15.299Z,10.13
2022-11-16T00:16:47.028Z,10.02
2022-11-16T00:17:18.494Z,9.45
2022-11-16T00:17:49.899Z,12.32
2022-11-16T00:18:21.985Z,12.70
2022-11-16T00:18:58.120Z,11.48
2022-11-16T00:19:29.678Z,9.38
2022-11-16T00:20:01.130Z,11.18
2022-11-16T00:20:32.573Z,10.90
2022-11-16T00:21:05.422Z,10.63
2022-11-16T00:21:36.894Z,9.68
2022-11-16T00:22:08.327Z,10.85
2022-11-16T00:22:39.800Z,10.45
2022-11-16T00:23:11.247Z,9.60
2022-11-16T00:23:42.763Z,9.63
2022-11-16T00:24:18.371Z,10.38
2022-11-16T00:24:49.968Z,10.27
2022-11-16T00:25:21.407Z,12.25
2022-11-16T00:25:53.975Z,11.35
2022-11-16T00:26:25.715Z,11.20
2022-11-16T00:26:57.299Z,10.45
2022-11-16T00:27:28.816Z,12.32
2022-11-16T00:28:00.609Z,9.77
2022-11-16T00:28:32.381Z,10.50
2022-11-16T00:29:04.176Z,10.25
2022-11-16T00:29:35.596Z,12.20
2022-11-16T00:30:07.562Z,11.18
2022-11-16T00:30:39.085Z,10.45
2022-11-16T00:31:10.695Z,11.32
2022-11-16T00:31:42.267Z,10.75
2022-11-16T00:32:13.712Z,9.95
2022-11-16T00:32:47.944Z,10.35
2022-11-16T00:33:19.616Z,11.00
2022-11-16T00:33:51.519Z,12.32
2022-11-16T00:34:23.807Z,10.45
2022-11-16T00:34:55.262Z,10.77
2022-11-16T00:35:27.037Z,11.07
2022-11-16T00:36:01.219Z,10.85
2022-11-16T00:36:32.653Z,10.52
2022-11-16T00:37:04.106Z,11.85
2022-11-16T00:37:35.723Z,11.65
2022-11-16T00:38:07.462Z,11.27
2022-11-16T00:38:41.299Z,11.00
2022-11-16T00:39:14.300Z,10.43
2022-11-16T00:39:45.740Z,11.27
2022-11-16T00:40:18.116Z,12.50
2022-11-16T00:40:50.059Z,10.38
2022-11-16T00:41:21.528Z,13.23
2022-11-16T00:41:53.011Z,11.35
2022-11-16T00:42:24.528Z,11.20
2022-11-16T00:42:55.956Z,10.50
2022-11-16T00:43:27.731Z,11.85
2022-11-16T00:43:59.292Z,13.07
2022-11-16T00:44:30.737Z,11.50
2022-11-16T00:45:02.184Z,14.57
2022-11-16T00:45:33.795Z,10.45
2022-11-16T00:46:05.504Z,11.25
2022-11-16T00:46:37.737Z,11.93
2022-11-16T00:47:09.264Z,10.13
2022-11-16T00:47:40.715Z,25.00
2022-11-16T00:48:12.804Z,11.77
2022-11-16T00:48:44.431Z,10.63
2022-11-16T00:49:16.196Z,11.25
2022-11-16T00:49:47.647Z,12.25
2022-11-16T00:50:19.195Z,11.95
2022-11-16T00:50:50.812Z,11.63
2022-11-16T00:51:23.077Z,11.20
2022-11-16T00:51:54.674Z,12.05
2022-11-16T00:52:26.459Z,12.75
2022-11-16T00:52:58.923Z,11.30
2022-11-16T00:53:32.533Z,12.88
2022-11-16T00:54:05.046Z,11.82
2022-11-16T00:54:38.901Z,11.43
2022-11-16T00:55:10.611Z,10.43
2022-11-16T00:55:43.615Z,12.00
2022-11-16T00:56:15.180Z,11.90
2022-11-16T00:56:48.683Z,13.05
2022-11-16T00:57:20.436Z,10.98
2022-11-16T00:57:52.011Z,16.17
2022-11-16T00:58:25.201Z,11.75
2022-11-16T00:59:03.649Z,10.70
2022-11-16T00:59:35.117Z,13.48
2022-11-16T01:00:08.087Z,11.90
2022-11-16T01:00:40.869Z,12.57
2022-11-16T01:01:12.748Z,11.25
2022-11-16T01:01:44.345Z,12.43
2022-11-16T01:02:16.501Z,13.77
2022-11-16T01:02:47.927Z,12.25
2022-11-16T01:03:19.381Z,11.77
2022-11-16T01:03:50.911Z,13.10
2022-11-16T01:04:23.888Z,12.93
2022-11-16T01:04:55.305Z,14.68
2022-11-16T01:05:26.792Z,12.35
2022-11-16T01:06:06.655Z,11.93
2022-11-16T01:06:38.089Z,11.60
2022-11-16T01:07:09.847Z,13.88
2022-11-16T01:07:41.478Z,12.70
2022-11-16T01:08:13.904Z,12.35
2022-11-16T01:08:45.927Z,15.75
2022-11-16T01:09:17.603Z,11.70
2022-11-16T01:09:52.031Z,11.75
2022-11-16T01:10:25.223Z,12.88
2022-11-16T01:11:16.630Z,12.57
2022-11-16T01:12:38.574Z,13.32
2022-11-16T01:13:11.022Z,13.75
2022-11-16T01:13:42.476Z,12.93
2022-11-16T01:14:14.074Z,11.85
2022-11-16T01:14:47.755Z,12.07
2022-11-16T01:15:22.559Z,12.07
2022-11-16T01:15:55.078Z,12.05
2022-11-16T01:16:26.511Z,11.88
2022-11-16T01:16:57.941Z,13.75
2022-11-16T01:17:29.492Z,12.43
2022-11-16T01:18:00.919Z,12.07
2022-11-16T01:18:32.715Z,15.32
2022-11-16T01:19:05.163Z,11.68
2022-11-16T01:19:37.720Z,10.75
2022-11-16T01:20:14.068Z,14.35
2022-11-16T01:20:45.555Z,13.68
2022-11-16T01:21:17.580Z,13.40
2022-11-16T01:21:49.058Z,12.15
2022-11-16T01:22:20.551Z,14.45
2022-11-16T01:22:52.196Z,13.55
2022-11-16T01:23:23.782Z,13.88
2022-11-16T01:23:57.107Z,11.95
2022-11-16T01:24:29.015Z,12.40
2022-11-16T01:25:00.874Z,12.07
2022-11-16T01:25:32.600Z,11.70
2022-11-16T01:26:04.125Z,12.43
2022-11-16T01:26:39.203Z,13.50
2022-11-16T01:27:10.833Z,11.93
2022-11-16T01:27:44.696Z,12.73
2022-11-16T01:28:22.803Z,12.80
2022-11-16T01:28:55.908Z,15.70
2022-11-16T01:29:29.048Z,11.68
2022-11-16T01:30:04.955Z,12.77
2022-11-16T01:30:38.573Z,11.50
2022-11-16T01:31:13.830Z,12.45
2022-11-16T01:31:46.145Z,13.48
2022-11-16T01:32:17.679Z,10.82
2022-11-16T01:32:49.196Z,11.23
2022-11-16T01:33:21.390Z,13.25
2022-11-16T01:33:54.315Z,13.27
2022-11-16T01:34:29.130Z,11.95
2022-11-16T01:35:07.923Z,12.73
2022-11-16T01:35:43.290Z,12.65
2022-11-16T01:36:15.352Z,13.32
2022-11-16T01:36:47.967Z,14.45
2022-11-16T01:37:20.202Z,14.52
2022-11-16T01:37:51.693Z,13.68
2022-11-16T01:38:28.424Z,11.95
2022-11-16T01:39:01.324Z,13.52
2022-11-16T01:39:37.440Z,12.57
2022-11-16T01:40:10.361Z,12.88
2022-11-16T01:40:43.549Z,13.40
2022-11-16T01:41:17.754Z,12.38
2022-11-16T01:41:54.049Z,12.77
2022-11-16T01:42:30.450Z,11.35
2022-11-16T01:43:14.481Z,13.07
2022-11-16T01:44:14.748Z,12.20
2022-11-16T01:45:17.152Z,10.93
2022-11-16T01:45:48.831Z,10.73
2022-11-16T01:46:20.531Z,13.60
2022-11-16T01:46:52.051Z,11.35
2022-11-16T01:47:24.069Z,13.25
2022-11-16T01:47:56.168Z,11.27
2022-11-16T01:48:32.590Z,13.43
2022-11-16T01:49:12.218Z,11.63
2022-11-16T01:49:50.187Z,14.45
2022-11-16T01:50:27.324Z,17.85
2022-11-16T01:50:59.036Z,12.77
2022-11-16T01:51:33.676Z,11.88
2022-11-16T01:52:08.929Z,14.35
2022-11-16T01:52:46.588Z,11.63
2022-11-16T01:53:18.323Z,12.38
2022-11-16T01:53:57.342Z,13.40
2022-11-16T01:54:29.772Z,13.45
2022-11-16T01:55:04.457Z,13.65
2022-11-16T01:55:48.503Z,13.07
2022-11-16T01:56:25.989Z,11.75
2022-11-16T01:57:15.536Z,12.13
2022-11-16T01:57:55.761Z,12.73
2022-11-16T01:58:27.542Z,11.65
2022-11-16T01:59:05.881Z,11.15
2022-11-16T01:59:38.351Z,12.60
2022-11-16T02:00:13.102Z,14.85
2022-11-16T02:00:55.153Z,13.77
2022-11-16T02:01:53.022Z,12.68
2022-11-16T02:02:26.283Z,15.63
2022-11-16T02:02:57.945Z,11.10
2022-11-16T02:03:41.512Z,14.40
2022-11-16T02:04:14.074Z,14.95
2022-11-16T02:04:51.385Z,14.23
2022-11-16T02:05:57.579Z,12.60
2022-11-16T02:06:31.970Z,12.38
2022-11-16T02:07:58.126Z,13.50
2022-11-16T02:09:07.199Z,11.40
2022-11-16T02:09:58.159Z,14.40
2022-11-16T02:10:41.601Z,14.15
2022-11-16T02:11:30.782Z,12.13
2022-11-16T02:12:13.110Z,11.80
2022-11-16T02:12:59.900Z,10.57
2022-11-16T02:13:51.406Z,13.98
2022-11-16T02:14:43.290Z,12.75
2022-11-16T02:15:27.907Z,13.55
2022-11-16T02:16:33.892Z,15.73
2022-11-16T02:17:44.645Z,10.95
2022-11-16T02:18:38.472Z,10.88
2022-11-16T02:19:10.375Z,11.43
2022-11-16T02:19:59.313Z,12.27
2022-11-16T02:20:58.689Z,11.65
2022-11-16T02:21:56.798Z,11.27
2022-11-16T02:23:01.996Z,12.48
2022-11-16T02:23:52.079Z,13.85
2022-11-16T02:24:47.394Z,11.85
2022-11-16T02:25:50.052Z,12.45
2022-11-16T02:26:49.711Z,13.40
2022-11-16T02:27:33.150Z,13.48
2022-11-16T02:28:32.396Z,14.70
2022-11-16T02:29:20.964Z,11.68
2022-11-16T02:29:54.226Z,16.10
2022-11-16T02:30:25.704Z,14.48
2022-11-16T02:31:00.581Z,12.45
2022-11-16T02:31:38.034Z,10.32
2022-11-16T02:32:31.253Z,13.25
2022-11-16T02:33:09.156Z,11.45
2022-11-16T02:33:41.647Z,9.40
2022-11-16T02:34:16.600Z,10.52
2022-11-16T02:34:57.502Z,11.10
2022-11-16T02:35:33.705Z,10.90
2022-11-16T02:36:11.420Z,10.05
2022-11-16T02:36:44.341Z,10.05
2022-11-16T02:37:20.398Z,11.27
2022-11-16T02:37:58.551Z,14.20
2022-11-16T02:38:33.543Z,11.88
2022-11-16T02:39:09.827Z,10.52
2022-11-16T02:39:41.902Z,11.88
2022-11-16T02:40:15.639Z,11.57
2022-11-16T02:40:50.724Z,11.68
2022-11-16T02:41:28.917Z,13.00
2022-11-16T02:42:01.899Z,12.32
2022-11-16T02:42:44.948Z,15.32
2022-11-16T02:43:26.370Z,10.57
2022-11-16T02:44:07.232Z,11.80
2022-11-16T02:44:43.948Z,10.70
2022-11-16T02:45:20.446Z,9.23
2022-11-16T02:45:55.512Z,10.43
2022-11-16T02:46:29.539Z,10.30
2022-11-16T02:47:05.082Z,9.52
2022-11-16T02:47:37.926Z,10.85
2022-11-16T02:48:14.393Z,9.20
2022-11-16T02:48:49.923Z,9.02
2022-11-16T02:49:23.693Z,10.02
2022-11-16T02:49:58.499Z,11.48
2022-11-16T02:50:31.054Z,11.43
2022-11-16T02:51:03.613Z,11.43
2022-11-16T02:51:36.528Z,9.85
2022-11-16T02:52:09.963Z,9.88
2022-11-16T02:52:41.542Z,13.38
2022-11-16T02:53:15.347Z,11.80
2022-11-16T02:54:20.443Z,11.95
2022-11-16T02:54:55.683Z,14.52
2022-11-16T02:55:28.829Z,10.48
2022-11-16T02:56:00.817Z,10.20
2022-11-16T02:56:42.925Z,13.10
2022-11-16T02:57:42.300Z,11.48
2022-11-16T02:58:24.796Z,9.80
2022-11-16T02:58:58.003Z,9.73
2022-11-16T02:59:43.296Z,10.88
2022-11-16T03:00:25.752Z,10.75
2022-11-16T03:01:05.309Z,9.60
2022-11-16T03:01:41.193Z,10.27
2022-11-16T03:02:34.639Z,9.63
2022-11-16T03:03:13.220Z,11.98
2022-11-16T03:03:58.906Z,10.27
2022-11-16T03:04:35.926Z,10.50
2022-11-16T03:05:08.671Z,10.13
2022-11-16T03:06:17.546Z,13.02
2022-11-16T03:06:50.308Z,11.60
2022-11-16T03:07:27.113Z,11.55
2022-11-16T03:08:14.688Z,11.70
2022-11-16T03:09:02.441Z,12.05
2022-11-16T03:09:37.042Z,9.77
2022-11-16T03:10:09.621Z,10.18
2022-11-16T03:11:00.496Z,10.73
2022-11-16T03:11:53.248Z,11.73
2022-11-16T03:12:29.745Z,10.85
2022-11-16T03:13:02.393Z,11.38
2022-11-16T03:13:35.899Z,10.02
2022-11-16T03:14:10.145Z,11.75
2022-11-16T03:14:52.336Z,10.30
2022-11-16T03:15:24.162Z,14.85
2022-11-16T03:15:56.445Z,10.40
2022-11-16T03:16:43.903Z,10.15
2022-11-16T03:17:26.340Z,13.02
2022-11-16T03:17:58.488Z,9.95
2022-11-16T03:18:30.089Z,10.23
2022-11-16T03:19:08.991Z,10.02
2022-11-16T03:19:57.846Z,9.93
2022-11-16T03:20:32.975Z,9.35
2022-11-16T03:21:27.158Z,8.52
2022-11-16T03:22:07.864Z,10.15
2022-11-16T03:22:54.351Z,10.52
2022-11-16T03:23:25.809Z,13.30
2022-11-16T03:23:57.617Z,10.95
2022-11-16T03:24:29.220Z,11.75
2022-11-16T03:25:00.731Z,11.23
2022-11-16T03:25:42.132Z,11.30
2022-11-16T03:26:17.023Z,10.93
2022-11-16T03:27:12.540Z,10.13
2022-11-16T03:28:08.497Z,9.88
2022-11-16T03:29:00.723Z,10.05
2022-11-16T03:29:47.259Z,9.57
2022-11-16T03:30:23.991Z,10.63
2022-11-16T03:31:01.598Z,13.02
2022-11-16T03:31:41.103Z,9.63
2022-11-16T03:32:19.029Z,9.93
2022-11-16T03:32:53.331Z,10.60
2022-11-16T03:33:31.001Z,10.07
2022-11-16T03:34:07.305Z,10.85
2022-11-16T03:34:41.662Z,11.60
2022-11-16T03:35:21.068Z,10.48
2022-11-16T03:36:16.322Z,10.82
2022-11-16T03:36:50.025Z,9.93
2022-11-16T03:37:24.385Z,10.48
2022-11-16T03:37:57.918Z,9.32
2022-11-16T03:38:31.637Z,11.25
2022-11-16T03:39:08.567Z,10.05
2022-11-16T03:39:42.053Z,10.95
2022-11-16T03:40:14.100Z,9.27
2022-11-16T03:40:47.263Z,10.50
2022-11-16T03:41:20.607Z,12.38
2022-11-16T03:41:53.498Z,11.07
2022-11-16T03:42:26.603Z,14.00
2022-11-16T03:42:59.670Z,10.32
2022-11-16T03:43:32.249Z,9.98
2022-11-16T03:44:05.892Z,13.60
2022-11-16T03:44:38.802Z,11.40
2022-11-16T03:45:13.432Z,9.75
2022-11-16T03:45:46.892Z,9.93
2022-11-16T03:46:19.444Z,10.60
2022-11-16T03:46:50.940Z,9.55
2022-11-16T03:47:22.401Z,13.45
2022-11-16T03:47:53.827Z,9.60
2022-11-16T03:48:26.087Z,11.52
2022-11-16T03:48:59.122Z,10.50
2022-11-16T03:49:34.112Z,11.93
2022-11-16T03:50:07.011Z,11.32
2022-11-16T03:50:39.025Z,12.02
2022-11-16T03:51:11.185Z,10.63
2022-11-16T03:51:44.242Z,10.95
2022-11-16T03:52:16.954Z,11.20
2022-11-16T03:52:48.787Z,9.98
2022-11-16T03:53:20.355Z,11.20
2022-11-16T03:53:51.884Z,10.13
2022-11-16T03:54:23.977Z,12.23
2022-11-16T03:54:55.429Z,11.27
2022-11-16T03:55:29.041Z,12.60
2022-11-16T03:56:00.778Z,12.35
2022-11-16T03:56:32.947Z,12.00
2022-11-16T03:57:04.405Z,12.57
2022-11-16T03:57:36.087Z,11.88
2022-11-16T03:58:07.533Z,12.60
2022-11-16T03:58:38.992Z,11.98
2022-11-16T03:59:10.681Z,11.95
2022-11-16T03:59:43.330Z,13.70
2022-11-16T04:00:15.821Z,15.07
2022-11-16T04:00:48.350Z,13.82
2022-11-16T04:01:19.918Z,12.93
2022-11-16T04:01:52.607Z,14.07
2022-11-16T04:02:24.252Z,13.73
2022-11-16T04:02:58.306Z,13.48
2022-11-16T04:03:29.836Z,12.65
2022-11-16T04:04:02.244Z,13.73
2022-11-16T04:05:09.180Z,12.88
2022-11-16T04:05:59.780Z,12.85
2022-11-16T04:06:49.936Z,12.93
2022-11-16T04:07:40.139Z,12.73
2022-11-16T04:08:34.800Z,14.63
2022-11-16T04:09:25.210Z,12.63
2022-11-16T04:10:15.233Z,14.75
2022-11-16T04:11:05.747Z,13.30
2022-11-16T04:12:47.320Z,13.90
2022-11-16T04:13:44.362Z,12.43
2022-11-16T04:14:39.123Z,13.98
2022-11-16T04:15:31.158Z,12.70
2022-11-16T04:16:21.589Z,17.88
2022-11-16T04:17:11.702Z,12.95
2022-11-16T04:18:01.819Z,14.88
2022-11-16T04:18:51.845Z,14.32
2022-11-16T04:19:41.976Z,13.77
2022-11-16T04:20:33.962Z,17.05
2022-11-16T04:21:27.116Z,13.45
2022-11-16T04:22:21.605Z,14.60
2022-11-16T04:23:15.483Z,14.63
2022-11-16T04:24:06.305Z,13.38
2022-11-16T04:24:40.254Z,13.73
2022-11-16T04:25:15.167Z,13.98
2022-11-16T04:25:47.831Z,14.15
2022-11-16T04:26:41.672Z,14.45
2022-11-16T04:27:32.910Z,13.95
2022-11-16T04:28:14.206Z,16.52
2022-11-16T04:28:50.023Z,14.27
2022-11-16T04:29:21.845Z,14.02
2022-11-16T04:29:54.456Z,13.05
2022-11-16T04:30:26.303Z,14.95
2022-11-16T04:31:18.362Z,14.13
2022-11-16T04:32:13.105Z,15.02
2022-11-16T04:33:03.193Z,14.70
2022-11-16T04:33:53.774Z,13.82
2022-11-16T04:34:43.839Z,14.63
2022-11-16T04:35:47.501Z,13.38
2022-11-16T04:36:38.286Z,12.63
2022-11-16T04:37:32.798Z,14.32
2022-11-16T04:38:04.465Z,15.98
2022-11-16T04:38:38.854Z,17.23
2022-11-16T04:39:10.356Z,14.25
2022-11-16T04:39:41.924Z,14.63
2022-11-16T04:40:18.497Z,14.82
2022-11-16T04:40:50.021Z,14.23
2022-11-16T04:41:45.118Z,15.30
2022-11-16T04:42:19.951Z,14.18
2022-11-16T04:42:55.961Z,14.55
2022-11-16T04:43:27.403Z,16.45
2022-11-16T04:43:59.011Z,14.30
2022-11-16T04:44:50.526Z,15.02
2022-11-16T04:45:42.068Z,14.43
2022-11-16T04:46:32.635Z,14.02
2022-11-16T04:47:06.974Z,15.50
2022-11-16T04:47:39.220Z,14.00
2022-11-16T04:48:12.225Z,16.83
2022-11-16T04:48:44.391Z,13.88
2022-11-16T04:49:15.819Z,15.23
2022-11-16T04:49:47.973Z,15.63
2022-11-16T04:50:20.089Z,15.30
2022-11-16T04:50:53.275Z,14.35
2022-11-16T04:51:24.752Z,17.42
2022-11-16T04:51:56.367Z,17.75
2022-11-16T04:52:27.866Z,14.85
2022-11-16T04:53:00.865Z,14.27
2022-11-16T04:53:33.416Z,13.95
2022-11-16T04:54:12.739Z,16.30
2022-11-16T04:54:44.320Z,14.88
2022-11-16T04:55:18.016Z,12.40
2022-11-16T04:55:51.112Z,14.57
2022-11-16T04:56:24.678Z,12.45
2022-11-16T04:56:56.144Z,13.25
2022-11-16T04:57:28.636Z,13.85
2022-11-16T04:58:01.416Z,15.25
2022-11-16T04:58:33.219Z,15.05
2022-11-16T04:59:05.269Z,12.27
2022-11-16T04:59:36.716Z,12.30
2022-11-16T05:00:09.311Z,15.15
2022-11-16T05:00:42.313Z,13.55
2022-11-16T05:01:14.874Z,12.38
2022-11-16T05:02:06.051Z,14.73
2022-11-16T05:02:37.511Z,13.65
2022-11-16T05:03:08.953Z,15.68
2022-11-16T05:03:40.447Z,14.27
2022-11-16T05:04:12.039Z,13.88
2022-11-16T05:04:44.268Z,16.52
2022-11-16T05:05:16.769Z,13.93
2022-11-16T05:05:50.229Z,12.50
2022-11-16T05:06:21.878Z,11.98
2022-11-16T05:06:53.807Z,12.77
2022-11-16T05:07:26.161Z,13.40
2022-11-16T05:08:05.125Z,13.57
2022-11-16T05:08:37.675Z,18.73
2022-11-16T05:09:09.903Z,13.82
2022-11-16T05:09:43.579Z,11.43
2022-11-16T05:10:17.125Z,11.48
2022-11-16T05:10:51.367Z,12.52
2022-11-16T05:11:23.766Z,12.15
2022-11-16T05:11:55.583Z,14.27
2022-11-16T05:12:27.982Z,10.80
2022-11-16T05:13:03.058Z,12.27
2022-11-16T05:13:34.486Z,12.82
2022-11-16T05:14:08.730Z,10.38
2022-11-16T05:14:41.722Z,12.95
2022-11-16T05:15:13.223Z,10.60
2022-11-16T05:15:47.728Z,13.65
2022-11-16T05:16:19.266Z,12.75
2022-11-16T05:16:50.924Z,9.93
2022-11-16T05:17:23.171Z,10.10
2022-11-16T05:17:55.718Z,10.63
2022-11-16T05:18:29.626Z,9.43
2022-11-16T05:19:19.923Z,9.82
2022-11-16T05:20:10.243Z,10.90
2022-11-16T05:21:01.752Z,9.15
2022-11-16T05:22:13.695Z,8.23
2022-11-16T05:22:45.227Z,9.55
2022-11-16T05:23:35.220Z,10.77
2022-11-16T05:24:31.357Z,8.15
2022-11-16T05:25:03.980Z,12.85
2022-11-16T05:25:37.059Z,10.32
2022-11-16T05:26:11.453Z,8.40
2022-11-16T05:26:43.223Z,9.13
2022-11-16T05:27:16.443Z,9.65
2022-11-16T05:27:48.190Z,8.68
2022-11-16T05:28:20.280Z,10.15
2022-11-16T05:28:51.890Z,11.10
2022-11-16T05:29:23.338Z,9.82
2022-11-16T05:29:55.334Z,11.40
2022-11-16T05:30:29.628Z,9.13
2022-11-16T05:31:03.295Z,8.00
2022-11-16T05:31:40.311Z,7.82
2022-11-16T05:32:13.396Z,9.57
2022-11-16T05:32:44.939Z,13.00
2022-11-16T05:33:18.673Z,9.95
2022-11-16T05:33:50.222Z,7.57
2022-11-16T05:34:23.348Z,9.13
2022-11-16T05:34:54.796Z,8.63
2022-11-16T05:35:27.504Z,8.40
2022-11-16T05:35:59.037Z,8.23
2022-11-16T05:36:31.348Z,8.38
2022-11-16T05:37:03.187Z,9.35
2022-11-16T05:37:35.199Z,11.80
2022-11-16T05:38:06.948Z,9.90
2022-11-16T05:38:43.077Z,7.00
2022-11-16T05:39:14.750Z,7.20
2022-11-16T05:39:49.744Z,7.38
2022-11-16T05:40:21.266Z,8.48
2022-11-16T05:41:01.009Z,8.25
2022-11-16T05:41:32.690Z,7.78
2022-11-16T05:42:04.848Z,8.70
2022-11-16T05:42:36.398Z,7.82
2022-11-16T05:43:07.947Z,8.20
2022-11-16T05:43:44.527Z,7.15
2022-11-16T05:44:23.498Z,8.65
2022-11-16T05:44:55.243Z,6.93
2022-11-16T05:45:26.727Z,7.72
2022-11-16T05:45:58.320Z,10.05
2022-11-16T05:46:29.757Z,8.23
2022-11-16T05:47:04.056Z,8.15
2022-11-16T05:47:35.809Z,9.55
2022-11-16T05:48:07.896Z,8.43
2022-11-16T05:48:39.459Z,10.98
2022-11-16T05:49:12.026Z,8.40
2022-11-16T05:49:43.496Z,8.65
2022-11-16T05:50:15.391Z,8.60
2022-11-16T05:50:50.948Z,8.40
2022-11-16T05:51:29.136Z,9.80
2022-11-16T05:52:00.836Z,9.38
2022-11-16T05:52:33.512Z,10.43
2022-11-16T05:53:09.823Z,10.80
2022-11-16T05:53:41.430Z,10.85
2022-11-16T05:54:18.801Z,10.35
2022-11-16T05:54:50.402Z,9.57
2022-11-16T05:55:22.023Z,9.88
2022-11-16T05:55:53.762Z,12.20
2022-11-16T05:56:26.089Z,10.05
2022-11-16T05:56:59.233Z,10.35
2022-11-16T05:57:30.692Z,11.55
2022-11-16T05:58:02.138Z,9.88
2022-11-16T05:58:33.905Z,9.93
2022-11-16T05:59:05.927Z,9.93
2022-11-16T05:59:37.604Z,10.40
2022-11-16T06:00:10.312Z,10.05
2022-11-16T06:00:51.154Z,10.98
2022-11-16T06:01:24.996Z,10.48
2022-11-16T06:01:56.632Z,11.27
2022-11-16T06:02:28.110Z,6.93
2022-11-16T06:02:59.909Z,6.57
2022-11-16T06:03:36.418Z,5.53
2022-11-16T06:04:08.598Z,7.90
2022-11-16T06:04:40.076Z,5.13
2022-11-16T06:05:12.580Z,7.10
2022-11-16T06:05:44.189Z,4.90
2022-11-16T06:06:20.063Z,5.43
2022-11-16T06:06:52.622Z,4.72
2022-11-16T06:07:24.433Z,4.10
2022-11-16T06:07:55.957Z,4.70
2022-11-16T06:08:28.703Z,4.03
2022-11-16T06:09:02.909Z,7.43
2022-11-16T06:09:35.724Z,3.50
2022-11-16T06:10:16.929Z,7.40
2022-11-16T06:10:51.001Z,4.55
2022-11-16T06:11:23.143Z,10.57
2022-11-16T06:11:54.650Z,4.60
2022-11-16T06:12:26.170Z,5.93
2022-11-16T06:12:58.421Z,4.35
2022-11-16T06:13:30.929Z,3.67
2022-11-16T06:14:04.768Z,2.75
2022-11-16T06:14:37.030Z,2.67
2022-11-16T06:15:09.879Z,2.67
2022-11-16T06:15:41.635Z,2.90
2022-11-16T06:16:14.412Z,5.13
2022-11-16T06:16:45.847Z,5.10
2022-11-16T06:17:17.339Z,2.63
2022-11-16T06:17:49.827Z,2.75
2022-11-16T06:18:21.440Z,4.30
2022-11-16T06:18:54.051Z,2.20
2022-11-16T06:19:31.070Z,2.50
2022-11-16T06:20:04.189Z,5.20
2022-11-16T06:20:38.780Z,2.85
2022-11-16T06:21:11.646Z,1.88
2022-11-16T06:21:43.164Z,3.63
2022-11-16T06:22:20.847Z,2.88
2022-11-16T06:22:52.871Z,3.53
2022-11-16T06:23:24.519Z,3.22
2022-11-16T06:23:57.434Z,2.60
2022-11-16T06:24:28.948Z,5.20
2022-11-16T06:25:00.470Z,3.72
2022-11-16T06:25:32.485Z,3.38
2022-11-16T06:26:05.098Z,4.68
2022-11-16T06:26:37.153Z,3.85
2022-11-16T06:27:08.714Z,2.92
2022-11-16T06:27:40.606Z,2.10
2022-11-16T06:28:13.769Z,1.98
2022-11-16T06:28:45.205Z,2.50
2022-11-16T06:29:17.324Z,3.85
2022-11-16T06:29:49.503Z,3.13
2022-11-16T06:30:20.957Z,2.30
2022-11-16T06:30:52.453Z,2.50
2022-11-16T06:31:23.973Z,2.95
2022-11-16T06:31:55.387Z,3.67
2022-11-16T06:32:27.353Z,2.40
2022-11-16T06:32:59.167Z,4.32
2022-11-16T06:33:33.611Z,2.33
2022-11-16T06:34:08.044Z,2.25
2022-11-16T06:34:39.532Z,1.80
2022-11-16T06:35:11.101Z,1.80
2022-11-16T06:35:43.663Z,1.83
2022-11-16T06:36:15.284Z,1.98
2022-11-16T06:36:47.143Z,6.38
2022-11-16T06:37:18.891Z,1.63
2022-11-16T06:37:50.346Z,1.20
2022-11-16T06:38:23.326Z,1.73
2022-11-16T06:39:00.310Z,1.65
2022-11-16T06:39:33.479Z,4.22
2022-11-16T06:40:05.672Z,2.38
2022-11-16T06:40:40.984Z,3.83
2022-11-16T06:41:12.473Z,2.67
2022-11-16T06:41:48.629Z,3.38
2022-11-16T06:42:20.131Z,2.38
2022-11-16T06:42:51.777Z,3.58
2022-11-16T06:43:24.536Z,2.05
2022-11-16T06:43:56.075Z,2.03
2022-11-16T06:44:33.231Z,1.88
2022-11-16T06:45:07.940Z,3.65
2022-11-16T06:45:44.241Z,2.10
2022-11-16T06:46:16.052Z,5.40
2022-11-16T06:46:47.481Z,2.78
2022-11-16T06:47:18.912Z,1.95
2022-11-16T06:47:50.395Z,4.55
2022-11-16T06:48:22.414Z,3.42
2022-11-16T06:48:53.871Z,4.10
2022-11-16T06:49:25.396Z,3.67
2022-11-16T06:49:59.202Z,2.15
2022-11-16T06:50:30.652Z,1.60
2022-11-16T06:51:02.521Z,6.53
2022-11-16T06:51:34.271Z,6.63
2022-11-16T06:52:05.828Z,3.55
2022-11-16T06:52:37.524Z,1.77
2022-11-16T06:53:09.034Z,3.42
2022-11-16T06:53:40.529Z,6.07
2022-11-16T06:54:12.474Z,1.90
2022-11-16T06:54:43.930Z,4.55
2022-11-16T06:55:16.572Z,3.72
2022-11-16T06:55:48.414Z,2.08
2022-11-16T06:56:20.149Z,2.90
2022-11-16T06:56:56.663Z,3.03
2022-11-16T06:57:28.142Z,7.13
2022-11-16T06:58:00.992Z,2.28
2022-11-16T06:58:34.264Z,2.65
2022-11-16T06:59:06.015Z,4.20
2022-11-16T06:59:37.484Z,11.85
2022-11-16T07:00:11.075Z,1.90
2022-11-16T07:00:42.839Z,1.60
2022-11-16T07:01:15.785Z,3.78
2022-11-16T07:01:49.416Z,1.42
2022-11-16T07:02:22.876Z,1.95
2022-11-16T07:02:54.602Z,3.03
2022-11-16T07:03:27.114Z,1.55
2022-11-16T07:03:58.833Z,2.13
2022-11-16T07:04:32.297Z,2.22
2022-11-16T07:05:05.216Z,1.50
2022-11-16T07:05:40.899Z,4.35
2022-11-16T07:06:16.452Z,1.88
2022-11-16T07:06:50.314Z,3.22
2022-11-16T07:07:22.926Z,2.75
2022-11-16T07:07:55.355Z,1.50
2022-11-16T07:08:27.899Z,3.97
2022-11-16T07:08:59.355Z,2.97
2022-11-16T07:09:34.886Z,1.90
2022-11-16T07:10:06.902Z,1.70
2022-11-16T07:10:38.516Z,3.15
2022-11-16T07:11:11.530Z,3.10
2022-11-16T07:11:43.436Z,1.98
2022-11-16T07:12:15.346Z,4.63
2022-11-16T07:12:46.849Z,3.35
2022-11-16T07:13:19.746Z,3.17
2022-11-16T07:13:51.318Z,1.83
2022-11-16T07:14:22.935Z,2.33
2022-11-16T07:14:54.423Z,2.53
2022-11-16T07:15:26.444Z,3.92
2022-11-16T07:16:08.542Z,6.78
2022-11-16T07:16:40.203Z,1.67
2022-11-16T07:17:11.735Z,1.90
2022-11-16T07:17:44.052Z,1.85
2022-11-16T07:18:15.504Z,2.03
2022-11-16T07:18:47.284Z,3.72
2022-11-16T07:19:19.275Z,2.05
2022-11-16T07:19:50.712Z,2.38
2022-11-16T07:20:23.115Z,4.93
2022-11-16T07:20:55.364Z,3.25
2022-11-16T07:21:26.902Z,6.47
2022-11-16T07:21:59.939Z,4.90
2022-11-16T07:22:32.348Z,6.07
2022-11-16T07:23:08.016Z,4.57
2022-11-16T07:23:43.147Z,1.95
2022-11-16T07:24:17.527Z,1.80
2022-11-16T07:24:49.128Z,3.00
2022-11-16T07:25:20.869Z,3.55
2022-11-16T07:25:52.492Z,3.08
2022-11-16T07:26:35.338Z,2.92
2022-11-16T07:27:13.036Z,2.13
2022-11-16T07:27:48.565Z,4.47
2022-11-16T07:28:20.052Z,5.78
2022-11-16T07:28:51.535Z,3.92
2022-11-16T07:29:26.063Z,4.68
2022-11-16T07:30:26.133Z,5.63
2022-11-16T07:31:06.274Z,4.30
2022-11-16T07:31:38.251Z,3.45
2022-11-16T07:32:29.957Z,7.43
2022-11-16T07:33:15.485Z,5.25
2022-11-16T07:34:05.556Z,4.63
2022-11-16T07:34:46.479Z,6.32
2022-11-16T07:35:20.509Z,6.60
2022-11-16T07:35:52.011Z,15.32
2022-11-16T07:36:24.865Z,43.78
2022-11-16T07:36:58.534Z,8.32
2022-11-16T07:37:30.278Z,6.35
2022-11-16T07:38:02.300Z,5.70
2022-11-16T07:38:34.852Z,5.90
2022-11-16T07:39:09.280Z,6.55
2022-11-16T07:39:41.042Z,8.60
2022-11-16T07:40:13.971Z,62.28
2022-11-16T07:40:45.754Z,7.90
2022-11-16T07:41:20.810Z,6.35
2022-11-16T07:41:59.730Z,9.32
2022-11-16T07:42:45.272Z,26.98
2022-11-16T07:43:35.250Z,9.93
2022-11-16T07:44:16.006Z,13.77
2022-11-16T07:44:50.612Z,11.88
2022-11-16T07:45:22.052Z,11.95
2022-11-16T07:46:56.015Z,12.15
2022-11-16T07:47:27.507Z,10.40
2022-11-16T07:48:00.908Z,11.32
2022-11-16T07:48:52.700Z,9.13
2022-11-16T07:49:48.817Z,11.20
2022-11-16T07:50:23.411Z,9.85
2022-11-16T07:51:03.355Z,10.48
2022-11-16T07:51:36.186Z,9.25